sensor_id;sensor_type;location;lat;lon;timestamp;pressure;altitude;pressure_sealevel;temperature;humidity
59767;BME280;46248;58.364;25.582;2024-02-21T00:03:08;100712.16;;;-1.57;100.00
59767;BME280;46248;58.364;25.582;2024-02-21T00:06:30;100719.00;;;-1.56;100.00
59767;BME280;46248;58.364;25.582;2024-02-21T00:09:54;100713.84;;;-1.57;100.00
59767;BME280;46248;58.364;25.582;2024-02-21T00:13:15;100698.44;;;-1.62;100.00
59767;BME280;46248;58.364;25.582;2024-02-21T00:16:37;100703.56;;;-1.61;100.00
59767;BME280;46248;58.364;25.582;2024-02-21T00:19:59;100701.00;;;-1.61;100.00
59767;BME280;46248;58.364;25.582;2024-02-21T00:23:21;100702.75;;;-1.63;100.00
59767;BME280;46248;58.364;25.582;2024-02-21T00:26:44;100696.75;;;-1.63;100.00
59767;BME280;46248;58.364;25.582;2024-02-21T00:30:07;100689.88;;;-1.64;100.00
59767;BME280;46248;58.364;25.582;2024-02-21T00:33:28;100689.91;;;-1.63;100.00
59767;BME280;46248;58.364;25.582;2024-02-21T00:36:50;100685.59;;;-1.61;100.00
59767;BME280;46248;58.364;25.582;2024-02-21T00:40:12;100680.47;;;-1.61;100.00
59767;BME280;46248;58.364;25.582;2024-02-21T00:43:38;100684.75;;;-1.63;100.00
59767;BME280;46248;58.364;25.582;2024-02-21T00:47:00;100685.59;;;-1.64;100.00
59767;BME280;46248;58.364;25.582;2024-02-21T00:50:22;100677.91;;;-1.64;100.00
59767;BME280;46248;58.364;25.582;2024-02-21T00:53:44;100671.91;;;-1.64;100.00
59767;BME280;46248;58.364;25.582;2024-02-21T00:57:06;100661.66;;;-1.66;100.00
59767;BME280;46248;58.364;25.582;2024-02-21T01:00:29;100663.34;;;-1.68;100.00
59767;BME280;46248;58.364;25.582;2024-02-21T01:03:51;100667.63;;;-1.68;100.00
59767;BME280;46248;58.364;25.582;2024-02-21T01:07:14;100676.22;;;-1.66;100.00
59767;BME280;46248;58.364;25.582;2024-02-21T01:10:36;100665.06;;;-1.67;100.00
59767;BME280;46248;58.364;25.582;2024-02-21T01:13:57;100674.47;;;-1.64;100.00
59767;BME280;46248;58.364;25.582;2024-02-21T01:17:21;100671.06;;;-1.66;100.00
59767;BME280;46248;58.364;25.582;2024-02-21T01:20:42;100666.78;;;-1.67;100.00
59767;BME280;46248;58.364;25.582;2024-02-21T01:24:04;100669.34;;;-1.67;100.00
59767;BME280;46248;58.364;25.582;2024-02-21T01:27:26;100665.06;;;-1.68;100.00
59767;BME280;46248;58.364;25.582;2024-02-21T01:30:48;100660.81;;;-1.69;100.00
59767;BME280;46248;58.364;25.582;2024-02-21T01:34:11;100656.50;;;-1.72;100.00
59767;BME280;46248;58.364;25.582;2024-02-21T01:37:33;100650.50;;;-1.74;100.00
59767;BME280;46248;58.364;25.582;2024-02-21T01:40:55;100662.50;;;-1.71;100.00
59767;BME280;46248;58.364;25.582;2024-02-21T01:44:18;100661.63;;;-1.70;100.00
59767;BME280;46248;58.364;25.582;2024-02-21T01:47:40;100649.66;;;-1.71;100.00
59767;BME280;46248;58.364;25.582;2024-02-21T01:51:04;100649.66;;;-1.70;100.00
59767;BME280;46248;58.364;25.582;2024-02-21T01:54:26;100636.81;;;-1.71;100.00
59767;BME280;46248;58.364;25.582;2024-02-21T01:57:49;100641.94;;;-1.70;100.00
59767;BME280;46248;58.364;25.582;2024-02-21T02:01:11;100641.13;;;-1.69;100.00
59767;BME280;46248;58.364;25.582;2024-02-21T02:04:35;100642.81;;;-1.69;100.00
59767;BME280;46248;58.364;25.582;2024-02-21T02:07:58;100644.50;;;-1.67;100.00
59767;BME280;46248;58.364;25.582;2024-02-21T02:11:20;100637.69;;;-1.68;100.00
59767;BME280;46248;58.364;25.582;2024-02-21T02:14:42;100630.81;;;-1.67;100.00
59767;BME280;46248;58.364;25.582;2024-02-21T02:18:04;100630.81;;;-1.67;100.00
59767;BME280;46248;58.364;25.582;2024-02-21T02:21:29;100619.72;;;-1.69;100.00
59767;BME280;46248;58.364;25.582;2024-02-21T02:24:53;100620.56;;;-1.67;100.00
59767;BME280;46248;58.364;25.582;2024-02-21T02:28:15;100622.28;;;-1.68;100.00
59767;BME280;46248;58.364;25.582;2024-02-21T02:31:37;100614.59;;;-1.66;100.00
59767;BME280;46248;58.364;25.582;2024-02-21T02:34:59;100611.16;;;-1.68;100.00
59767;BME280;46248;58.364;25.582;2024-02-21T02:38:21;100589.75;;;-1.79;100.00
59767;BME280;46248;58.364;25.582;2024-02-21T02:41:44;100612.00;;;-1.68;100.00
59767;BME280;46248;58.364;25.582;2024-02-21T02:45:07;100600.03;;;-1.73;100.00
59767;BME280;46248;58.364;25.582;2024-02-21T02:48:29;100612.03;;;-1.69;100.00
59767;BME280;46248;58.364;25.582;2024-02-21T02:51:51;100615.44;;;-1.70;100.00
59767;BME280;46248;58.364;25.582;2024-02-21T02:55:13;100584.63;;;-1.92;100.00
59767;BME280;46248;58.364;25.582;2024-02-21T02:58:37;100615.41;;;-1.73;100.00
59767;BME280;46248;58.364;25.582;2024-02-21T03:01:58;100612.00;;;-1.74;100.00
59767;BME280;46248;58.364;25.582;2024-02-21T03:05:21;100617.13;;;-1.74;100.00
59767;BME280;46248;58.364;25.582;2024-02-21T03:08:43;100615.44;;;-1.72;100.00
59767;BME280;46248;58.364;25.582;2024-02-21T03:12:06;100603.47;;;-1.71;100.00
59767;BME280;46248;58.364;25.582;2024-02-21T03:15:29;100600.88;;;-1.71;100.00
59767;BME280;46248;58.364;25.582;2024-02-21T03:18:51;100594.88;;;-1.76;100.00
59767;BME280;46248;58.364;25.582;2024-02-21T03:22:13;100602.59;;;-1.72;100.00
59767;BME280;46248;58.364;25.582;2024-02-21T03:25:35;100604.31;;;-1.69;100.00
59767;BME280;46248;58.364;25.582;2024-02-21T03:28:56;100604.31;;;-1.68;100.00
59767;BME280;46248;58.364;25.582;2024-02-21T03:32:20;100598.31;;;-1.67;100.00
59767;BME280;46248;58.364;25.582;2024-02-21T03:35:41;100603.47;;;-1.68;100.00
59767;BME280;46248;58.364;25.582;2024-02-21T03:39:03;100606.88;;;-1.69;100.00
59767;BME280;46248;58.364;25.582;2024-02-21T03:42:25;100601.75;;;-1.69;100.00
59767;BME280;46248;58.364;25.582;2024-02-21T03:45:50;100604.31;;;-1.69;100.00
59767;BME280;46248;58.364;25.582;2024-02-21T03:49:13;100607.75;;;-1.69;100.00
59767;BME280;46248;58.364;25.582;2024-02-21T03:52:36;100607.75;;;-1.69;100.00
59767;BME280;46248;58.364;25.582;2024-02-21T03:56:01;100603.44;;;-1.70;100.00
59767;BME280;46248;58.364;25.582;2024-02-21T03:59:24;100594.91;;;-1.72;100.00
59767;BME280;46248;58.364;25.582;2024-02-21T04:02:46;100602.59;;;-1.69;100.00
59767;BME280;46248;58.364;25.582;2024-02-21T04:06:09;100601.75;;;-1.69;100.00
59767;BME280;46248;58.364;25.582;2024-02-21T04:09:31;100606.00;;;-1.70;100.00
59767;BME280;46248;58.364;25.582;2024-02-21T04:12:53;100612.03;;;-1.69;100.00
59767;BME280;46248;58.364;25.582;2024-02-21T04:16:15;100605.16;;;-1.70;100.00
59767;BME280;46248;58.364;25.582;2024-02-21T04:19:38;100600.88;;;-1.70;100.00
59767;BME280;46248;58.364;25.582;2024-02-21T04:23:01;100609.44;;;-1.68;100.00
59767;BME280;46248;58.364;25.582;2024-02-21T04:26:23;100591.50;;;-1.69;100.00
59767;BME280;46248;58.364;25.582;2024-02-21T04:29:45;100593.16;;;-1.67;100.00
59767;BME280;46248;58.364;25.582;2024-02-21T04:33:07;100597.44;;;-1.67;100.00
59767;BME280;46248;58.364;25.582;2024-02-21T04:36:29;100592.31;;;-1.70;100.00
59767;BME280;46248;58.364;25.582;2024-02-21T04:39:52;100589.75;;;-1.67;100.00
59767;BME280;46248;58.364;25.582;2024-02-21T04:43:14;100575.22;;;-1.68;100.00
59767;BME280;46248;58.364;25.582;2024-02-21T04:46:35;100572.66;;;-1.68;100.00
59767;BME280;46248;58.364;25.582;2024-02-21T04:49:57;100580.34;;;-1.67;100.00
59767;BME280;46248;58.364;25.582;2024-02-21T04:53:20;100577.75;;;-1.67;100.00
59767;BME280;46248;58.364;25.582;2024-02-21T04:56:43;100570.06;;;-1.67;100.00
59767;BME280;46248;58.364;25.582;2024-02-21T05:00:06;100570.06;;;-1.65;100.00
59767;BME280;46248;58.364;25.582;2024-02-21T05:03:28;100559.81;;;-1.68;100.00
59767;BME280;46248;58.364;25.582;2024-02-21T05:06:49;100569.22;;;-1.64;100.00
59767;BME280;46248;58.364;25.582;2024-02-21T05:10:11;100564.94;;;-1.64;100.00
59767;BME280;46248;58.364;25.582;2024-02-21T05:13:35;100553.81;;;-1.69;100.00
59767;BME280;46248;58.364;25.582;2024-02-21T05:16:57;100559.78;;;-1.61;100.00
59767;BME280;46248;58.364;25.582;2024-02-21T05:20:19;100557.22;;;-1.61;100.00
59767;BME280;46248;58.364;25.582;2024-02-21T05:23:41;100559.78;;;-1.61;100.00
59767;BME280;46248;58.364;25.582;2024-02-21T05:27:03;100553.81;;;-1.61;100.00
59767;BME280;46248;58.364;25.582;2024-02-21T05:30:26;100559.78;;;-1.61;100.00
59767;BME280;46248;58.364;25.582;2024-02-21T05:33:48;100552.09;;;-1.59;100.00
59767;BME280;46248;58.364;25.582;2024-02-21T05:37:10;100543.53;;;-1.61;100.00
59767;BME280;46248;58.364;25.582;2024-02-21T05:40:32;100558.94;;;-1.56;100.00
59767;BME280;46248;58.364;25.582;2024-02-21T05:43:53;100555.50;;;-1.55;100.00
59767;BME280;46248;58.364;25.582;2024-02-21T05:47:17;100557.22;;;-1.57;100.00
59767;BME280;46248;58.364;25.582;2024-02-21T05:50:41;100558.09;;;-1.54;100.00
59767;BME280;46248;58.364;25.582;2024-02-21T05:54:03;100558.94;;;-1.53;100.00
59767;BME280;46248;58.364;25.582;2024-02-21T05:57:24;100542.69;;;-1.54;100.00
59767;BME280;46248;58.364;25.582;2024-02-21T06:00:46;100547.81;;;-1.49;100.00
59767;BME280;46248;58.364;25.582;2024-02-21T06:04:10;100551.22;;;-1.47;100.00
59767;BME280;46248;58.364;25.582;2024-02-21T06:07:32;100545.22;;;-1.49;100.00
59767;BME280;46248;58.364;25.582;2024-02-21T06:10:54;100528.97;;;-1.53;100.00
59767;BME280;46248;58.364;25.582;2024-02-21T06:14:15;100548.66;;;-1.44;100.00
59767;BME280;46248;58.364;25.582;2024-02-21T06:17:38;100544.38;;;-1.42;100.00
59767;BME280;46248;58.364;25.582;2024-02-21T06:21:01;100544.38;;;-1.39;100.00
59767;BME280;46248;58.364;25.582;2024-02-21T06:24:23;100544.38;;;-1.33;100.00
59767;BME280;46248;58.364;25.582;2024-02-21T06:27:45;100548.63;;;-1.30;100.00
59767;BME280;46248;58.364;25.582;2024-02-21T06:31:07;100534.94;;;-1.29;100.00
59767;BME280;46248;58.364;25.582;2024-02-21T06:34:29;100540.06;;;-1.28;100.00
59767;BME280;46248;58.364;25.582;2024-02-21T06:37:55;100525.50;;;-1.30;100.00
59767;BME280;46248;58.364;25.582;2024-02-21T06:41:18;100538.31;;;-1.21;100.00
59767;BME280;46248;58.364;25.582;2024-02-21T06:44:40;100528.91;;;-1.18;100.00
59767;BME280;46248;58.364;25.582;2024-02-21T06:48:03;100524.59;;;-1.14;100.00
59767;BME280;46248;58.364;25.582;2024-02-21T06:51:25;100525.44;;;-1.10;100.00
59767;BME280;46248;58.364;25.582;2024-02-21T06:54:48;100526.28;;;-1.07;100.00
59767;BME280;46248;58.364;25.582;2024-02-21T06:58:10;100527.13;;;-1.03;100.00
59767;BME280;46248;58.364;25.582;2024-02-21T07:01:32;100523.72;;;-1.02;100.00
59767;BME280;46248;58.364;25.582;2024-02-21T07:04:54;100524.53;;;-0.97;100.00
59767;BME280;46248;58.364;25.582;2024-02-21T07:08:16;100529.66;;;-0.94;100.00
59767;BME280;46248;58.364;25.582;2024-02-21T07:11:39;100537.38;;;-0.94;100.00
59767;BME280;46248;58.364;25.582;2024-02-21T07:15:02;100535.66;;;-0.92;100.00
59767;BME280;46248;58.364;25.582;2024-02-21T07:18:26;100522.84;;;-0.98;100.00
59767;BME280;46248;58.364;25.582;2024-02-21T07:21:48;100533.09;;;-0.87;100.00
59767;BME280;46248;58.364;25.582;2024-02-21T07:25:10;100533.06;;;-0.86;100.00
59767;BME280;46248;58.364;25.582;2024-02-21T07:28:33;100527.03;;;-0.85;100.00
59767;BME280;46248;58.364;25.582;2024-02-21T07:31:55;100527.03;;;-0.80;100.00
59767;BME280;46248;58.364;25.582;2024-02-21T07:35:17;100525.31;;;-0.78;100.00
59767;BME280;46248;58.364;25.582;2024-02-21T07:38:39;100521.03;;;-0.75;100.00
59767;BME280;46248;58.364;25.582;2024-02-21T07:42:02;100509.84;;;-0.71;100.00
59767;BME280;46248;58.364;25.582;2024-02-21T07:45:25;100507.25;;;-0.64;100.00
59767;BME280;46248;58.364;25.582;2024-02-21T07:48:47;100508.91;;;-0.56;100.00
59767;BME280;46248;58.364;25.582;2024-02-21T07:52:09;100512.31;;;-0.51;100.00
59767;BME280;46248;58.364;25.582;2024-02-21T07:55:31;100511.44;;;-0.48;100.00
59767;BME280;46248;58.364;25.582;2024-02-21T07:58:53;100513.13;;;-0.44;100.00
59767;BME280;46248;58.364;25.582;2024-02-21T08:02:16;100514.81;;;-0.40;100.00
59767;BME280;46248;58.364;25.582;2024-02-21T08:05:38;100506.22;;;-0.37;100.00
59767;BME280;46248;58.364;25.582;2024-02-21T08:09:00;100507.91;;;-0.30;100.00
59767;BME280;46248;58.364;25.582;2024-02-21T08:12:22;100510.44;;;-0.26;100.00
59767;BME280;46248;58.364;25.582;2024-02-21T08:15:44;100506.13;;;-0.25;100.00
59767;BME280;46248;58.364;25.582;2024-02-21T08:19:07;100515.59;;;-0.24;100.00
59767;BME280;46248;58.364;25.582;2024-02-21T08:22:29;100526.69;;;-0.22;100.00
59767;BME280;46248;58.364;25.582;2024-02-21T08:25:51;100524.16;;;-0.24;100.00
59767;BME280;46248;58.364;25.582;2024-02-21T08:29:13;100520.72;;;-0.24;100.00
59767;BME280;46248;58.364;25.582;2024-02-21T08:32:35;100518.94;;;-0.19;100.00
59767;BME280;46248;58.364;25.582;2024-02-21T08:35:58;100521.53;;;-0.17;100.00
59767;BME280;46248;58.364;25.582;2024-02-21T08:39:20;100516.38;;;-0.17;100.00
59767;BME280;46248;58.364;25.582;2024-02-21T08:42:42;100509.53;;;-0.20;100.00
59767;BME280;46248;58.364;25.582;2024-02-21T08:46:04;100502.66;;;-0.15;100.00
59767;BME280;46248;58.364;25.582;2024-02-21T08:49:26;100507.78;;;-0.15;100.00
59767;BME280;46248;58.364;25.582;2024-02-21T08:52:55;100506.03;;;-0.13;100.00
59767;BME280;46248;58.364;25.582;2024-02-21T08:56:18;100508.59;;;-0.08;100.00
59767;BME280;46248;58.364;25.582;2024-02-21T08:59:39;100504.25;;;-0.06;100.00
59767;BME280;46248;58.364;25.582;2024-02-21T09:03:02;100509.41;;;-0.06;100.00
59767;BME280;46248;58.364;25.582;2024-02-21T09:06:23;100498.28;;;-0.08;100.00
59767;BME280;46248;58.364;25.582;2024-02-21T09:09:47;100505.97;;;-0.02;100.00
59767;BME280;46248;58.364;25.582;2024-02-21T09:13:08;100499.91;;;0.04;100.00
59767;BME280;46248;58.364;25.582;2024-02-21T09:16:31;100502.41;;;0.11;100.00
59767;BME280;46248;58.364;25.582;2024-02-21T09:19:53;100498.97;;;0.15;100.00
59767;BME280;46248;58.364;25.582;2024-02-21T09:23:20;100504.88;;;0.23;100.00
59767;BME280;46248;58.364;25.582;2024-02-21T09:26:43;100504.00;;;0.28;100.00
59767;BME280;46248;58.364;25.582;2024-02-21T09:30:07;100502.25;;;0.30;100.00
59767;BME280;46248;58.364;25.582;2024-02-21T09:33:29;100492.75;;;0.33;100.00
59767;BME280;46248;58.364;25.582;2024-02-21T09:36:52;100489.28;;;0.40;100.00
59767;BME280;46248;58.364;25.582;2024-02-21T09:40:15;100495.25;;;0.45;100.00
59767;BME280;46248;58.364;25.582;2024-02-21T09:43:40;100484.91;;;0.49;100.00
59767;BME280;46248;58.364;25.582;2024-02-21T09:47:03;100480.53;;;0.54;100.00
59767;BME280;46248;58.364;25.582;2024-02-21T09:50:26;100479.66;;;0.58;100.00
59767;BME280;46248;58.364;25.582;2024-02-21T09:53:49;100480.41;;;0.66;100.00
59767;BME280;46248;58.364;25.582;2024-02-21T09:57:26;100475.97;;;0.77;100.00
59767;BME280;46248;58.364;25.582;2024-02-21T10:00:50;100476.75;;;0.84;100.00
59767;BME280;46248;58.364;25.582;2024-02-21T10:04:12;100467.28;;;0.86;100.00
59767;BME280;46248;58.364;25.582;2024-02-21T10:07:34;100461.25;;;0.87;100.00
59767;BME280;46248;58.364;25.582;2024-02-21T10:10:56;100462.03;;;0.94;100.00
59767;BME280;46248;58.364;25.582;2024-02-21T10:14:23;100464.63;;;0.92;100.00
59767;BME280;46248;58.364;25.582;2024-02-21T10:17:47;100447.59;;;0.82;100.00
59767;BME280;46248;58.364;25.582;2024-02-21T10:21:21;100464.63;;;0.92;100.00
59767;BME280;46248;58.364;25.582;2024-02-21T10:24:52;100459.44;;;0.95;100.00
59767;BME280;46248;58.364;25.582;2024-02-21T10:28:16;100465.47;;;0.93;100.00
59767;BME280;46248;58.364;25.582;2024-02-21T10:31:46;100456.06;;;0.90;100.00
59767;BME280;46248;58.364;25.582;2024-02-21T10:35:09;100451.75;;;0.90;100.00
59767;BME280;46248;58.364;25.582;2024-02-21T10:38:34;100449.19;;;0.90;100.00
59767;BME280;46248;58.364;25.582;2024-02-21T10:41:59;100445.72;;;0.95;100.00
59767;BME280;46248;58.364;25.582;2024-02-21T10:45:23;100439.66;;;0.96;100.00
59767;BME280;46248;58.364;25.582;2024-02-21T10:48:55;100431.03;;;0.97;100.00
59767;BME280;46248;58.364;25.582;2024-02-21T10:52:32;100434.50;;;0.96;100.00
59767;BME280;46248;58.364;25.582;2024-02-21T10:56:06;100425.97;;;0.92;100.00
59767;BME280;46248;58.364;25.582;2024-02-21T10:59:34;100427.75;;;0.88;100.00
59767;BME280;46248;58.364;25.582;2024-02-21T11:02:56;100422.59;;;0.88;100.00
59767;BME280;46248;58.364;25.582;2024-02-21T11:06:19;100424.31;;;0.88;100.00
59767;BME280;46248;58.364;25.582;2024-02-21T11:09:51;100418.22;;;0.92;100.00
59767;BME280;46248;58.364;25.582;2024-02-21T11:13:13;100412.19;;;0.95;100.00
59767;BME280;46248;58.364;25.582;2024-02-21T11:16:36;100415.56;;;0.98;100.00
59767;BME280;46248;58.364;25.582;2024-02-21T11:20:11;100404.38;;;0.99;100.00
59767;BME280;46248;58.364;25.582;2024-02-21T11:23:33;100400.09;;;0.98;100.00
59767;BME280;46248;58.364;25.582;2024-02-21T11:26:56;100406.88;;;1.07;100.00
59767;BME280;46248;58.364;25.582;2024-02-21T11:30:30;100405.97;;;1.09;100.00
59767;BME280;46248;58.364;25.582;2024-02-21T11:33:53;100391.41;;;1.05;100.00
59767;BME280;46248;58.364;25.582;2024-02-21T11:37:15;100392.16;;;1.15;100.00
59767;BME280;46248;58.364;25.582;2024-02-21T11:40:38;100386.09;;;1.16;100.00
59767;BME280;46248;58.364;25.582;2024-02-21T11:44:02;100385.22;;;1.17;100.00
59767;BME280;46248;58.364;25.582;2024-02-21T11:47:24;100370.72;;;1.10;100.00
59767;BME280;46248;58.364;25.582;2024-02-21T11:50:53;100369.88;;;1.09;100.00
59767;BME280;46248;58.364;25.582;2024-02-21T11:54:15;100369.81;;;1.12;100.00
59767;BME280;46248;58.364;25.582;2024-02-21T11:57:37;100369.81;;;1.12;100.00
59767;BME280;46248;58.364;25.582;2024-02-21T12:01:05;100358.63;;;1.12;100.00
59767;BME280;46248;58.364;25.582;2024-02-21T12:04:28;100349.16;;;1.16;100.00
59767;BME280;46248;58.364;25.582;2024-02-21T12:07:51;100341.41;;;1.16;100.00
59767;BME280;46248;58.364;25.582;2024-02-21T12:11:21;100349.16;;;1.16;100.00
59767;BME280;46248;58.364;25.582;2024-02-21T12:14:43;100339.69;;;1.14;100.00
59767;BME280;46248;58.364;25.582;2024-02-21T12:18:06;100342.31;;;1.13;100.00
59767;BME280;46248;58.364;25.582;2024-02-21T12:21:30;100335.50;;;1.06;100.00
59767;BME280;46248;58.364;25.582;2024-02-21T12:24:53;100338.97;;;1.06;100.00
59767;BME280;46248;58.364;25.582;2024-02-21T12:28:15;100338.94;;;1.08;100.00
59767;BME280;46248;58.364;25.582;2024-02-21T12:31:38;100331.34;;;1.00;100.00
59767;BME280;46248;58.364;25.582;2024-02-21T12:35:01;100336.34;;;1.09;100.00
59767;BME280;46248;58.364;25.582;2024-02-21T12:38:24;100343.16;;;1.13;100.00
59767;BME280;46248;58.364;25.582;2024-02-21T12:41:46;100337.19;;;1.08;100.00
59767;BME280;46248;58.364;25.582;2024-02-21T12:45:09;100341.56;;;1.06;100.00
59767;BME280;46248;58.364;25.582;2024-02-21T12:48:31;100342.41;;;1.05;100.00
59767;BME280;46248;58.364;25.582;2024-02-21T12:51:55;100333.91;;;0.99;100.00
59767;BME280;46248;58.364;25.582;2024-02-21T12:55:17;100344.13;;;1.05;100.00
59767;BME280;46248;58.364;25.582;2024-02-21T12:58:39;100344.19;;;1.03;100.00
59767;BME280;46248;58.364;25.582;2024-02-21T13:02:01;100336.44;;;1.02;100.00
59767;BME280;46248;58.364;25.582;2024-02-21T13:05:22;100320.28;;;0.90;100.00
59767;BME280;46248;58.364;25.582;2024-02-21T13:08:46;100336.59;;;0.94;100.00
59767;BME280;46248;58.364;25.582;2024-02-21T13:12:08;100326.31;;;0.89;100.00
59767;BME280;46248;58.364;25.582;2024-02-21T13:15:30;100332.28;;;0.95;100.00
59767;BME280;46248;58.364;25.582;2024-02-21T13:18:52;100320.28;;;0.90;100.00
59767;BME280;46248;58.364;25.582;2024-02-21T13:22:16;100324.59;;;0.91;100.00
59767;BME280;46248;58.364;25.582;2024-02-21T13:25:42;100320.28;;;0.90;100.00
59767;BME280;46248;58.364;25.582;2024-02-21T13:29:05;100313.47;;;0.86;100.00
59767;BME280;46248;58.364;25.582;2024-02-21T13:32:27;100318.63;;;0.88;100.00
59767;BME280;46248;58.364;25.582;2024-02-21T13:35:49;100316.91;;;0.87;100.00
59767;BME280;46248;58.364;25.582;2024-02-21T13:39:10;100316.06;;;0.86;100.00
59767;BME280;46248;58.364;25.582;2024-02-21T13:42:38;100310.91;;;0.86;100.00
59767;BME280;46248;58.364;25.582;2024-02-21T13:46:01;100300.63;;;0.85;100.00
59767;BME280;46248;58.364;25.582;2024-02-21T13:49:25;100303.25;;;0.82;100.00
59767;BME280;46248;58.364;25.582;2024-02-21T13:52:48;100298.09;;;0.82;100.00
59767;BME280;46248;58.364;25.582;2024-02-21T13:56:11;100291.22;;;0.81;100.00
59767;BME280;46248;58.364;25.582;2024-02-21T13:59:34;100293.00;;;0.79;100.00
59767;BME280;46248;58.364;25.582;2024-02-21T14:02:56;100283.56;;;0.75;100.00
59767;BME280;46248;58.364;25.582;2024-02-21T14:06:19;100283.63;;;0.73;100.00
59767;BME280;46248;58.364;25.582;2024-02-21T14:09:41;100280.16;;;0.76;100.00
59767;BME280;46248;58.364;25.582;2024-02-21T14:13:04;100280.97;;;0.78;100.00
59767;BME280;46248;58.364;25.582;2024-02-21T14:16:27;100273.22;;;0.78;100.00
59767;BME280;46248;58.364;25.582;2024-02-21T14:19:50;100160.00;;;0.13;100.00
59767;BME280;46248;58.364;25.582;2024-02-21T14:23:13;100258.66;;;0.77;100.00
59767;BME280;46248;58.364;25.582;2024-02-21T14:26:35;100265.50;;;0.78;100.00
59767;BME280;46248;58.364;25.582;2024-02-21T14:29:58;100257.75;;;0.79;100.00
59767;BME280;46248;58.364;25.582;2024-02-21T14:33:21;100249.97;;;0.81;100.00
59767;BME280;46248;58.364;25.582;2024-02-21T14:36:43;100255.97;;;0.81;100.00
59767;BME280;46248;58.364;25.582;2024-02-21T14:40:06;100255.19;;;0.78;100.00
59767;BME280;46248;58.364;25.582;2024-02-21T14:43:28;100254.38;;;0.74;100.00
59767;BME280;46248;58.364;25.582;2024-02-21T14:46:50;100253.59;;;0.69;100.00
59767;BME280;46248;58.364;25.582;2024-02-21T14:50:13;100257.06;;;0.66;100.00
59767;BME280;46248;58.364;25.582;2024-02-21T14:53:36;100252.78;;;0.67;100.00
59767;BME280;46248;58.364;25.582;2024-02-21T14:56:58;100246.72;;;0.69;100.00
59767;BME280;46248;58.364;25.582;2024-02-21T15:00:20;100239.84;;;0.70;100.00
59767;BME280;46248;58.364;25.582;2024-02-21T15:03:49;100233.97;;;0.60;100.00
59767;BME280;46248;58.364;25.582;2024-02-21T15:07:13;100248.50;;;0.66;100.00
59767;BME280;46248;58.364;25.582;2024-02-21T15:10:35;100245.06;;;0.67;100.00
59767;BME280;46248;58.364;25.582;2024-02-21T15:13:57;100240.75;;;0.66;100.00
59767;BME280;46248;58.364;25.582;2024-02-21T15:17:19;100241.63;;;0.65;100.00
59767;BME280;46248;58.364;25.582;2024-02-21T15:20:41;100223.69;;;0.59;100.00
59767;BME280;46248;58.364;25.582;2024-02-21T15:24:04;100228.81;;;0.62;100.00
59767;BME280;46248;58.364;25.582;2024-02-21T15:27:26;100223.66;;;0.62;100.00
59767;BME280;46248;58.364;25.582;2024-02-21T15:30:49;100225.38;;;0.61;100.00
59767;BME280;46248;58.364;25.582;2024-02-21T15:34:11;100222.75;;;0.63;100.00
59767;BME280;46248;58.364;25.582;2024-02-21T15:37:33;100227.13;;;0.61;100.00
59767;BME280;46248;58.364;25.582;2024-02-21T15:40:56;100222.81;;;0.60;100.00
59767;BME280;46248;58.364;25.582;2024-02-21T15:44:18;100210.06;;;0.51;100.00
59767;BME280;46248;58.364;25.582;2024-02-21T15:47:41;100214.28;;;0.58;100.00
59767;BME280;46248;58.364;25.582;2024-02-21T15:51:05;100210.81;;;0.57;100.00
59767;BME280;46248;58.364;25.582;2024-02-21T15:54:27;100210.03;;;0.54;100.00
59767;BME280;46248;58.364;25.582;2024-02-21T15:57:50;100203.97;;;0.56;100.00
59767;BME280;46248;58.364;25.582;2024-02-21T16:01:12;100207.44;;;0.54;100.00
59767;BME280;46248;58.364;25.582;2024-02-21T16:04:34;100204.03;;;0.53;100.00
59767;BME280;46248;58.364;25.582;2024-02-21T16:07:56;100199.84;;;0.46;100.00
59767;BME280;46248;58.364;25.582;2024-02-21T16:11:18;100207.50;;;0.51;100.00
59767;BME280;46248;58.364;25.582;2024-02-21T16:14:41;100206.66;;;0.52;100.00
59767;BME280;46248;58.364;25.582;2024-02-21T16:18:02;100210.06;;;0.52;100.00
59767;BME280;46248;58.364;25.582;2024-02-21T16:21:26;100206.66;;;0.50;100.00
59767;BME280;46248;58.364;25.582;2024-02-21T16:24:48;100201.50;;;0.52;100.00
59767;BME280;46248;58.364;25.582;2024-02-21T16:28:12;100197.19;;;0.51;100.00
59767;BME280;46248;58.364;25.582;2024-02-21T16:31:35;100192.03;;;0.51;100.00
59767;BME280;46248;58.364;25.582;2024-02-21T16:34:57;100197.19;;;0.51;100.00
59767;BME280;46248;58.364;25.582;2024-02-21T16:38:21;100183.50;;;0.47;100.00
59767;BME280;46248;58.364;25.582;2024-02-21T16:41:43;100186.13;;;0.45;100.00
59767;BME280;46248;58.364;25.582;2024-02-21T16:45:06;100187.78;;;0.48;100.00
59767;BME280;46248;58.364;25.582;2024-02-21T16:48:30;100172.41;;;0.42;100.00
59767;BME280;46248;58.364;25.582;2024-02-21T16:51:52;100184.41;;;0.46;100.00
59767;BME280;46248;58.364;25.582;2024-02-21T16:55:14;100184.41;;;0.46;100.00
59767;BME280;46248;58.364;25.582;2024-02-21T16:58:36;100181.78;;;0.48;100.00
59767;BME280;46248;58.364;25.582;2024-02-21T17:01:58;100177.50;;;0.47;100.00
59767;BME280;46248;58.364;25.582;2024-02-21T17:05:24;100175.84;;;0.44;100.00
59767;BME280;46248;58.364;25.582;2024-02-21T17:08:46;100167.22;;;0.45;100.00
59767;BME280;46248;58.364;25.582;2024-02-21T17:12:08;100162.13;;;0.42;100.00
59767;BME280;46248;58.364;25.582;2024-02-21T17:15:30;100151.81;;;0.42;100.00
59767;BME280;46248;58.364;25.582;2024-02-21T17:18:52;100156.97;;;0.42;100.00
59767;BME280;46248;58.364;25.582;2024-02-21T17:22:15;100157.00;;;0.39;100.00